sensor_id;sensor_type;location;lat;lon;timestamp;noise_LAeq;noise_LA_min;noise_LA_max;noise_LA01;noise_LA95
79288;Laerm;68737;53.946;27.634;2023-07-24T00:00:48;39.174728;36.440193;47.954506;;
79288;Laerm;68737;53.946;27.634;2023-07-24T00:03:18;41.517014;36.887413;53.066185;;
79288;Laerm;68737;53.946;27.634;2023-07-24T00:05:49;42.716644;37.233765;58.807854;;
79288;Laerm;68737;53.946;27.634;2023-07-24T00:08:20;44.468803;36.356560;58.067116;;
79288;Laerm;68737;53.946;27.634;2023-07-24T00:10:48;42.245201;37.342094;55.921059;;
79288;Laerm;68737;53.946;27.634;2023-07-24T00:13:18;46.698151;38.023079;63.340702;;
79288;Laerm;68737;53.946;27.634;2023-07-24T00:15:48;39.743248;37.100975;44.598297;;
79288;Laerm;68737;53.946;27.634;2023-07-24T00:18:18;39.704849;36.427483;46.531075;;
79288;Laerm;68737;53.946;27.634;2023-07-24T00:20:48;42.033180;36.504852;53.803429;;
79288;Laerm;68737;53.946;27.634;2023-07-24T00:23:18;43.011887;36.235840;54.969467;;
79288;Laerm;68737;53.946;27.634;2023-07-24T00:25:48;39.053947;36.491287;42.010506;;
79288;Laerm;68737;53.946;27.634;2023-07-24T00:28:18;39.858147;37.179161;45.775299;;
79288;Laerm;68737;53.946;27.634;2023-07-24T00:30:48;38.915741;35.881485;45.059532;;
79288;Laerm;68737;53.946;27.634;2023-07-24T00:33:18;38.630264;35.718529;42.983719;;
79288;Laerm;68737;53.946;27.634;2023-07-24T00:35:48;40.683426;35.870148;51.716705;;
79288;Laerm;68737;53.946;27.634;2023-07-24T00:38:18;41.851341;36.649635;54.204628;;
79288;Laerm;68737;53.946;27.634;2023-07-24T00:40:49;43.866104;37.156647;57.667412;;
79288;Laerm;68737;53.946;27.634;2023-07-24T00:43:18;41.553993;36.307930;52.640823;;
79288;Laerm;68737;53.946;27.634;2023-07-24T00:45:48;42.810394;36.984398;53.991516;;
79288;Laerm;68737;53.946;27.634;2023-07-24T00:48:18;40.344780;37.117607;53.912903;;
79288;Laerm;68737;53.946;27.634;2023-07-24T00:50:48;39.520599;36.718483;48.176544;;
79288;Laerm;68737;53.946;27.634;2023-07-24T00:53:18;41.044113;36.149055;50.956566;;
79288;Laerm;68737;53.946;27.634;2023-07-24T00:55:48;48.338783;36.802612;65.207390;;
79288;Laerm;68737;53.946;27.634;2023-07-24T00:58:18;43.553734;37.361794;60.740852;;
79288;Laerm;68737;53.946;27.634;2023-07-24T01:00:48;39.467819;36.870117;49.066414;;
79288;Laerm;68737;53.946;27.634;2023-07-24T01:03:18;40.937347;38.323555;45.813187;;
79288;Laerm;68737;53.946;27.634;2023-07-24T01:05:48;42.173088;37.091171;55.583946;;
79288;Laerm;68737;53.946;27.634;2023-07-24T01:08:18;40.146118;37.267723;46.209122;;
79288;Laerm;68737;53.946;27.634;2023-07-24T01:10:48;40.622688;37.403259;46.197365;;
79288;Laerm;68737;53.946;27.634;2023-07-24T01:13:19;44.185616;38.233620;55.706886;;
79288;Laerm;68737;53.946;27.634;2023-07-24T01:15:50;42.178604;37.959160;47.665321;;
79288;Laerm;68737;53.946;27.634;2023-07-24T01:18:18;43.832314;38.049545;56.986122;;
79288;Laerm;68737;53.946;27.634;2023-07-24T01:20:49;42.418449;37.980286;58.825554;;
79288;Laerm;68737;53.946;27.634;2023-07-24T01:28:18;44.840225;36.690712;60.970135;;
79288;Laerm;68737;53.946;27.634;2023-07-24T01:30:48;39.094307;36.364647;52.638634;;
79288;Laerm;68737;53.946;27.634;2023-07-24T01:33:19;43.693962;36.889069;55.390045;;
79288;Laerm;68737;53.946;27.634;2023-07-24T01:35:49;43.432739;37.438217;56.376434;;
79288;Laerm;68737;53.946;27.634;2023-07-24T01:38:18;47.807213;36.230072;65.481087;;
79288;Laerm;68737;53.946;27.634;2023-07-24T01:40:48;49.743248;36.139221;67.419357;;
79288;Laerm;68737;53.946;27.634;2023-07-24T01:43:18;52.240517;36.359550;68.544281;;
79288;Laerm;68737;53.946;27.634;2023-07-24T01:45:48;50.809471;37.266747;67.128571;;
79288;Laerm;68737;53.946;27.634;2023-07-24T01:48:18;51.856148;37.016113;67.700623;;
79288;Laerm;68737;53.946;27.634;2023-07-24T01:50:48;46.399872;36.099670;61.978962;;
79288;Laerm;68737;53.946;27.634;2023-07-24T01:53:18;45.988617;36.385124;60.917889;;
79288;Laerm;68737;53.946;27.634;2023-07-24T01:55:48;41.316132;36.563408;52.328506;;
79288;Laerm;68737;53.946;27.634;2023-07-24T01:58:18;43.441597;36.380196;62.621040;;
79288;Laerm;68737;53.946;27.634;2023-07-24T02:00:48;42.969826;36.944458;61.961098;;
79288;Laerm;68737;53.946;27.634;2023-07-24T02:03:18;48.355392;37.544891;78.281166;;
79288;Laerm;68737;53.946;27.634;2023-07-24T02:05:49;43.886948;37.883255;61.105854;;
79288;Laerm;68737;53.946;27.634;2023-07-24T02:08:18;46.937332;38.014732;57.236168;;
79288;Laerm;68737;53.946;27.634;2023-07-24T02:10:49;43.094551;36.704193;59.207226;;
79288;Laerm;68737;53.946;27.634;2023-07-24T02:13:18;48.372154;36.796600;60.784683;;
79288;Laerm;68737;53.946;27.634;2023-07-24T02:15:48;39.472527;36.436104;52.360657;;
79288;Laerm;68737;53.946;27.634;2023-07-24T02:18:18;46.809479;36.915680;60.187988;;
79288;Laerm;68737;53.946;27.634;2023-07-24T02:20:49;45.803932;37.247528;58.967155;;
79288;Laerm;68737;53.946;27.634;2023-07-24T02:23:18;41.560913;37.064362;55.287880;;
79288;Laerm;68737;53.946;27.634;2023-07-24T02:28:18;38.780121;36.567314;51.986900;;
79288;Laerm;68737;53.946;27.634;2023-07-24T02:30:48;41.967445;36.088737;59.026489;;
79288;Laerm;68737;53.946;27.634;2023-07-24T02:33:18;46.835403;37.385689;64.636978;;
79288;Laerm;68737;53.946;27.634;2023-07-24T02:35:49;50.771271;37.226677;65.296005;;
79288;Laerm;68737;53.946;27.634;2023-07-24T02:38:18;45.379463;37.398224;63.828751;;
79288;Laerm;68737;53.946;27.634;2023-07-24T02:40:48;46.607841;36.619820;63.829388;;
79288;Laerm;68737;53.946;27.634;2023-07-24T02:43:18;46.527443;38.658195;66.735703;;
79288;Laerm;68737;53.946;27.634;2023-07-24T02:45:48;49.669312;39.540916;62.418671;;
79288;Laerm;68737;53.946;27.634;2023-07-24T02:48:18;49.871223;42.537552;64.989716;;
79288;Laerm;68737;53.946;27.634;2023-07-24T02:50:48;48.201195;41.231255;62.894066;;
79288;Laerm;68737;53.946;27.634;2023-07-24T02:53:18;52.138069;45.158806;66.950249;;
79288;Laerm;68737;53.946;27.634;2023-07-24T02:55:48;51.979340;45.553268;67.682953;;
79288;Laerm;68737;53.946;27.634;2023-07-24T02:58:18;50.484123;45.682953;67.132973;;
79288;Laerm;68737;53.946;27.634;2023-07-24T03:00:48;51.538795;42.896118;65.755203;;
79288;Laerm;68737;53.946;27.634;2023-07-24T03:03:18;52.151848;43.637703;71.799423;;
79288;Laerm;68737;53.946;27.634;2023-07-24T03:05:48;50.936104;42.441658;62.300922;;
79288;Laerm;68737;53.946;27.634;2023-07-24T03:08:18;49.970085;41.627876;69.124939;;
79288;Laerm;68737;53.946;27.634;2023-07-24T03:10:48;51.661789;42.338013;64.710724;;
79288;Laerm;68737;53.946;27.634;2023-07-24T03:13:18;48.429176;39.516136;68.878983;;
79288;Laerm;68737;53.946;27.634;2023-07-24T03:18:18;49.666176;41.206085;62.601906;;
79288;Laerm;68737;53.946;27.634;2023-07-24T03:20:48;49.888809;40.118881;61.118996;;
79288;Laerm;68737;53.946;27.634;2023-07-24T03:23:18;49.314117;39.420212;68.014725;;
79288;Laerm;68737;53.946;27.634;2023-07-24T03:25:48;49.047783;40.153709;56.989632;;
79288;Laerm;68737;53.946;27.634;2023-07-24T03:28:18;53.373337;39.994797;66.402298;;
79288;Laerm;68737;53.946;27.634;2023-07-24T03:30:48;51.870293;42.583817;61.578056;;
79288;Laerm;68737;53.946;27.634;2023-07-24T03:33:19;50.911674;41.518555;64.199394;;
79288;Laerm;68737;53.946;27.634;2023-07-24T03:35:48;48.120605;39.586044;60.786831;;
79288;Laerm;68737;53.946;27.634;2023-07-24T03:38:18;51.478691;40.765266;61.875107;;
79288;Laerm;68737;53.946;27.634;2023-07-24T03:40:48;51.551605;39.480202;66.112923;;
79288;Laerm;68737;53.946;27.634;2023-07-24T03:43:18;49.917259;40.014198;61.574074;;
79288;Laerm;68737;53.946;27.634;2023-07-24T03:45:48;50.798172;41.115959;72.115677;;
79288;Laerm;68737;53.946;27.634;2023-07-24T03:48:18;51.676270;41.172920;63.493149;;
79288;Laerm;68737;53.946;27.634;2023-07-24T03:50:49;47.996887;40.328339;64.455299;;
79288;Laerm;68737;53.946;27.634;2023-07-24T03:53:18;48.887245;40.505119;63.499348;;
79288;Laerm;68737;53.946;27.634;2023-07-24T03:55:48;53.930206;42.346054;63.073338;;
79288;Laerm;68737;53.946;27.634;2023-07-24T03:58:18;52.637306;42.046356;62.118092;;
79288;Laerm;68737;53.946;27.634;2023-07-24T04:00:48;53.311981;42.368515;69.013275;;
79288;Laerm;68737;53.946;27.634;2023-07-24T04:03:18;51.891426;41.198410;62.141949;;
79288;Laerm;68737;53.946;27.634;2023-07-24T04:05:48;55.163864;40.439522;71.488953;;
79288;Laerm;68737;53.946;27.634;2023-07-24T04:08:18;51.487495;42.163040;61.512741;;
79288;Laerm;68737;53.946;27.634;2023-07-24T04:10:48;53.557777;42.940895;62.984962;;
79288;Laerm;68737;53.946;27.634;2023-07-24T04:13:18;50.476227;42.713676;63.440880;;
79288;Laerm;68737;53.946;27.634;2023-07-24T04:15:48;53.230972;43.555168;65.674011;;
79288;Laerm;68737;53.946;27.634;2023-07-24T04:18:18;54.780838;46.923546;62.003811;;
79288;Laerm;68737;53.946;27.634;2023-07-24T04:20:48;54.495956;43.236649;63.892944;;
79288;Laerm;68737;53.946;27.634;2023-07-24T04:23:18;57.524384;44.485283;75.471115;;
79288;Laerm;68737;53.946;27.634;2023-07-24T04:28:18;53.334137;42.531937;61.095936;;
79288;Laerm;68737;53.946;27.634;2023-07-24T04:30:48;55.890732;45.275467;67.520828;;
79288;Laerm;68737;53.946;27.634;2023-07-24T04:33:18;53.182396;45.110893;63.079269;;
79288;Laerm;68737;53.946;27.634;2023-07-24T04:35:48;53.754120;44.277176;62.725586;;
79288;Laerm;68737;53.946;27.634;2023-07-24T04:38:18;55.155975;46.195625;63.636578;;
79288;Laerm;68737;53.946;27.634;2023-07-24T04:40:48;54.131920;44.920876;74.070312;;
79288;Laerm;68737;53.946;27.634;2023-07-24T04:43:18;55.251083;46.035759;64.520996;;
79288;Laerm;68737;53.946;27.634;2023-07-24T04:45:48;55.858925;45.995186;69.168915;;
79288;Laerm;68737;53.946;27.634;2023-07-24T04:48:18;53.666573;44.370834;65.277107;;
79288;Laerm;68737;53.946;27.634;2023-07-24T04:53:18;52.388252;43.982285;61.470844;;
79288;Laerm;68737;53.946;27.634;2023-07-24T04:55:48;55.041077;44.685318;77.073959;;
79288;Laerm;68737;53.946;27.634;2023-07-24T04:58:18;53.890663;43.706360;61.883476;;
79288;Laerm;68737;53.946;27.634;2023-07-24T05:00:48;53.809715;42.100464;65.710754;;
79288;Laerm;68737;53.946;27.634;2023-07-24T05:03:18;54.691994;43.426598;65.230309;;
79288;Laerm;68737;53.946;27.634;2023-07-24T05:05:48;53.218712;43.098122;60.372169;;
79288;Laerm;68737;53.946;27.634;2023-07-24T05:08:18;57.266060;45.780128;65.272995;;
79288;Laerm;68737;53.946;27.634;2023-07-24T05:10:53;56.573822;46.603668;68.540092;;
79288;Laerm;68737;53.946;27.634;2023-07-24T05:13:18;54.249260;46.133492;61.641510;;
79288;Laerm;68737;53.946;27.634;2023-07-24T05:15:48;53.776031;43.774406;65.302475;;
79288;Laerm;68737;53.946;27.634;2023-07-24T05:18:18;53.730934;44.226059;64.002777;;
79288;Laerm;68737;53.946;27.634;2023-07-24T05:20:48;53.965904;45.786720;61.271076;;
79288;Laerm;68737;53.946;27.634;2023-07-24T05:23:18;56.452377;46.638100;68.172806;;
79288;Laerm;68737;53.946;27.634;2023-07-24T05:25:55;54.556679;45.036278;64.687302;;
79288;Laerm;68737;53.946;27.634;2023-07-24T05:28:18;54.693275;44.857826;65.579437;;
79288;Laerm;68737;53.946;27.634;2023-07-24T05:30:48;54.123604;42.932167;66.715553;;
79288;Laerm;68737;53.946;27.634;2023-07-24T05:33:18;55.357002;44.123039;62.428150;;
79288;Laerm;68737;53.946;27.634;2023-07-24T05:35:48;58.793861;44.152786;71.585876;;
79288;Laerm;68737;53.946;27.634;2023-07-24T05:38:18;59.638077;46.509590;72.712357;;
79288;Laerm;68737;53.946;27.634;2023-07-24T05:40:53;57.171074;46.960518;67.150772;;
79288;Laerm;68737;53.946;27.634;2023-07-24T05:43:18;57.252464;44.561684;71.892441;;
79288;Laerm;68737;53.946;27.634;2023-07-24T05:45:49;55.742928;45.690170;65.470734;;
79288;Laerm;68737;53.946;27.634;2023-07-24T05:48:18;56.130753;47.727966;73.486900;;
79288;Laerm;68737;53.946;27.634;2023-07-24T05:50:48;56.144608;45.328316;66.027863;;
79288;Laerm;68737;53.946;27.634;2023-07-24T05:53:18;56.009972;48.359756;67.501991;;
79288;Laerm;68737;53.946;27.634;2023-07-24T05:55:55;56.414268;43.097908;72.076630;;
79288;Laerm;68737;53.946;27.634;2023-07-24T05:58:18;54.905586;44.160225;67.909058;;
79288;Laerm;68737;53.946;27.634;2023-07-24T06:00:48;55.160439;43.996742;66.863007;;
79288;Laerm;68737;53.946;27.634;2023-07-24T06:03:18;57.121521;47.376244;67.609497;;
79288;Laerm;68737;53.946;27.634;2023-07-24T06:08:18;53.430885;41.439102;67.617661;;
79288;Laerm;68737;53.946;27.634;2023-07-24T06:10:48;55.879395;43.054520;69.643524;;
79288;Laerm;68737;53.946;27.634;2023-07-24T06:13:18;55.538696;46.127258;62.649693;;
79288;Laerm;68737;53.946;27.634;2023-07-24T06:15:48;54.077690;42.961380;63.964279;;
79288;Laerm;68737;53.946;27.634;2023-07-24T06:18:18;54.596657;42.915321;67.883820;;
79288;Laerm;68737;53.946;27.634;2023-07-24T06:20:51;54.217781;42.512520;64.942322;;
79288;Laerm;68737;53.946;27.634;2023-07-24T06:23:18;57.093170;43.437286;72.107750;;
79288;Laerm;68737;53.946;27.634;2023-07-24T06:25:48;53.999290;44.606186;62.887508;;
79288;Laerm;68737;53.946;27.634;2023-07-24T06:28:18;53.128784;45.324028;60.968948;;
79288;Laerm;68737;53.946;27.634;2023-07-24T06:30:48;52.819267;43.324265;64.400909;;
79288;Laerm;68737;53.946;27.634;2023-07-24T06:33:18;55.201530;44.042198;70.530762;;
79288;Laerm;68737;53.946;27.634;2023-07-24T06:35:48;59.024296;43.765030;75.286957;;
79288;Laerm;68737;53.946;27.634;2023-07-24T06:38:18;58.285332;45.177063;70.014954;;
79288;Laerm;68737;53.946;27.634;2023-07-24T06:40:48;58.860718;43.745209;74.172211;;
79288;Laerm;68737;53.946;27.634;2023-07-24T06:43:18;55.792595;45.003929;69.473877;;
79288;Laerm;68737;53.946;27.634;2023-07-24T06:45:48;58.075851;46.516113;73.841934;;
79288;Laerm;68737;53.946;27.634;2023-07-24T06:48:18;54.462151;45.942741;63.374771;;
79288;Laerm;68737;53.946;27.634;2023-07-24T06:50:48;56.031525;46.059799;65.131821;;
79288;Laerm;68737;53.946;27.634;2023-07-24T06:53:18;55.101463;43.055115;64.922501;;
79288;Laerm;68737;53.946;27.634;2023-07-24T06:55:48;54.124100;45.603973;62.384724;;
79288;Laerm;68737;53.946;27.634;2023-07-24T06:58:18;53.613335;43.175346;60.859112;;
79288;Laerm;68737;53.946;27.634;2023-07-24T07:00:48;53.969612;44.451050;60.797264;;
79288;Laerm;68737;53.946;27.634;2023-07-24T07:03:18;56.486511;46.236664;70.894943;;
79288;Laerm;68737;53.946;27.634;2023-07-24T07:05:48;55.306313;46.430176;70.002563;;
79288;Laerm;68737;53.946;27.634;2023-07-24T07:08:18;54.152283;46.134254;64.145203;;
79288;Laerm;68737;53.946;27.634;2023-07-24T07:10:54;54.734535;46.192543;68.483459;;
79288;Laerm;68737;53.946;27.634;2023-07-24T07:13:18;56.361816;46.530586;66.716637;;
79288;Laerm;68737;53.946;27.634;2023-07-24T07:15:48;55.351364;44.681793;68.927399;;
79288;Laerm;68737;53.946;27.634;2023-07-24T07:18:18;55.659889;45.211296;75.058853;;
79288;Laerm;68737;53.946;27.634;2023-07-24T07:20:48;53.835854;45.390984;63.924751;;
79288;Laerm;68737;53.946;27.634;2023-07-24T07:23:18;53.962524;45.488411;61.670197;;
79288;Laerm;68737;53.946;27.634;2023-07-24T07:25:48;53.682335;45.663254;61.972118;;
79288;Laerm;68737;53.946;27.634;2023-07-24T07:28:18;54.615776;44.361389;64.698151;;
79288;Laerm;68737;53.946;27.634;2023-07-24T07:30:48;54.238800;44.065414;62.860680;;
79288;Laerm;68737;53.946;27.634;2023-07-24T07:33:18;54.672394;43.394638;62.568909;;
79288;Laerm;68737;53.946;27.634;2023-07-24T07:35:48;54.719818;43.768730;65.698730;;
79288;Laerm;68737;53.946;27.634;2023-07-24T07:38:18;54.281136;44.239601;64.771614;;
79288;Laerm;68737;53.946;27.634;2023-07-24T07:40:48;55.326927;43.051048;66.407608;;
79288;Laerm;68737;53.946;27.634;2023-07-24T07:43:18;54.662422;44.269157;63.053719;;
79288;Laerm;68737;53.946;27.634;2023-07-24T07:45:48;56.565689;43.517487;73.006119;;
79288;Laerm;68737;53.946;27.634;2023-07-24T07:48:18;57.022675;42.762619;72.815498;;
79288;Laerm;68737;53.946;27.634;2023-07-24T07:53:18;54.788063;44.964828;65.044540;;
79288;Laerm;68737;53.946;27.634;2023-07-24T07:55:54;54.259636;44.243652;62.568642;;
79288;Laerm;68737;53.946;27.634;2023-07-24T07:58:18;54.872772;45.075180;68.637390;;
79288;Laerm;68737;53.946;27.634;2023-07-24T08:00:48;54.580124;44.249298;66.698837;;
79288;Laerm;68737;53.946;27.634;2023-07-24T08:03:18;56.187569;43.756889;64.945938;;
79288;Laerm;68737;53.946;27.634;2023-07-24T08:05:48;53.314262;42.998833;63.540340;;
79288;Laerm;68737;53.946;27.634;2023-07-24T08:08:18;52.243172;43.753845;67.376701;;
79288;Laerm;68737;53.946;27.634;2023-07-24T08:10:48;54.061195;42.751915;65.034348;;
79288;Laerm;68737;53.946;27.634;2023-07-24T08:13:18;54.194214;44.905067;65.171112;;
79288;Laerm;68737;53.946;27.634;2023-07-24T08:15:48;52.910400;42.847260;64.067871;;
79288;Laerm;68737;53.946;27.634;2023-07-24T08:18:18;52.218674;43.988098;61.604961;;
79288;Laerm;68737;53.946;27.634;2023-07-24T08:20:48;54.887154;44.734665;68.481964;;
79288;Laerm;68737;53.946;27.634;2023-07-24T08:23:18;53.558365;44.297363;65.851135;;
79288;Laerm;68737;53.946;27.634;2023-07-24T08:28:18;55.107834;46.389030;66.371536;;
79288;Laerm;68737;53.946;27.634;2023-07-24T08:33:18;64.735779;45.165314;83.013702;;
79288;Laerm;68737;53.946;27.634;2023-07-24T08:35:48;54.377823;45.095932;65.418068;;
79288;Laerm;68737;53.946;27.634;2023-07-24T08:38:18;53.567986;44.144539;70.256042;;
79288;Laerm;68737;53.946;27.634;2023-07-24T08:40:48;52.727158;44.485191;63.770283;;
79288;Laerm;68737;53.946;27.634;2023-07-24T08:43:18;54.263809;44.047684;64.228546;;
79288;Laerm;68737;53.946;27.634;2023-07-24T08:45:48;54.899872;46.627106;65.572235;;
79288;Laerm;68737;53.946;27.634;2023-07-24T08:48:18;55.600746;47.352119;64.668915;;
79288;Laerm;68737;53.946;27.634;2023-07-24T08:50:48;58.266319;44.909744;70.133652;;
79288;Laerm;68737;53.946;27.634;2023-07-24T08:55:48;52.835175;44.471947;63.674858;;
79288;Laerm;68737;53.946;27.634;2023-07-24T08:58:18;53.936462;45.579720;60.235615;;
79288;Laerm;68737;53.946;27.634;2023-07-24T09:00:48;54.063759;45.278702;64.331207;;
79288;Laerm;68737;53.946;27.634;2023-07-24T09:03:18;53.212570;45.610329;63.972652;;
79288;Laerm;68737;53.946;27.634;2023-07-24T09:05:48;56.863365;45.147545;68.571281;;
79288;Laerm;68737;53.946;27.634;2023-07-24T09:08:39;54.367752;44.221413;64.604927;;
79288;Laerm;68737;53.946;27.634;2023-07-24T09:10:49;53.960480;43.348434;62.295193;;
79288;Laerm;68737;53.946;27.634;2023-07-24T09:13:18;52.515244;42.235840;60.492794;;
79288;Laerm;68737;53.946;27.634;2023-07-24T09:15:48;52.298828;41.541374;64.024887;;
79288;Laerm;68737;53.946;27.634;2023-07-24T09:18:18;56.263695;46.566956;65.056610;;
79288;Laerm;68737;53.946;27.634;2023-07-24T09:20:48;54.400627;44.120712;62.447037;;
79288;Laerm;68737;53.946;27.634;2023-07-24T09:23:25;53.860374;45.335823;60.286247;;
79288;Laerm;68737;53.946;27.634;2023-07-24T09:25:48;53.064407;43.650124;61.911758;;
79288;Laerm;68737;53.946;27.634;2023-07-24T09:28:18;54.488495;45.771355;63.105888;;
79288;Laerm;68737;53.946;27.634;2023-07-24T09:33:18;54.094200;43.961044;66.480347;;
79288;Laerm;68737;53.946;27.634;2023-07-24T09:38:18;53.933998;44.891640;71.345337;;
79288;Laerm;68737;53.946;27.634;2023-07-24T09:40:48;54.123154;43.048065;66.103065;;
79288;Laerm;68737;53.946;27.634;2023-07-24T09:45:48;56.226944;44.526070;64.015030;;
79288;Laerm;68737;53.946;27.634;2023-07-24T09:48:18;55.195419;44.875320;67.080109;;
79288;Laerm;68737;53.946;27.634;2023-07-24T09:50:48;53.012207;43.452866;62.914150;;
79288;Laerm;68737;53.946;27.634;2023-07-24T09:58:18;53.688370;44.555328;62.375359;;
79288;Laerm;68737;53.946;27.634;2023-07-24T10:00:48;54.193047;42.505394;64.812111;;
79288;Laerm;68737;53.946;27.634;2023-07-24T10:03:18;54.396645;44.752815;67.508652;;
79288;Laerm;68737;53.946;27.634;2023-07-24T10:05:48;55.156883;43.746468;65.702927;;
79288;Laerm;68737;53.946;27.634;2023-07-24T10:08:18;55.790337;45.822258;69.724586;;
79288;Laerm;68737;53.946;27.634;2023-07-24T10:10:48;54.691925;45.051697;65.310555;;
79288;Laerm;68737;53.946;27.634;2023-07-24T10:13:18;54.123962;45.716743;63.186401;;
79288;Laerm;68737;53.946;27.634;2023-07-24T10:15:48;53.698540;44.887314;65.355042;;
79288;Laerm;68737;53.946;27.634;2023-07-24T10:18:25;55.737106;44.959015;69.361824;;
79288;Laerm;68737;53.946;27.634;2023-07-24T10:20:48;53.467308;42.729958;66.910919;;
79288;Laerm;68737;53.946;27.634;2023-07-24T10:23:18;52.850510;45.938370;62.955822;;
79288;Laerm;68737;53.946;27.634;2023-07-24T10:25:49;54.181000;45.146835;62.881775;;
79288;Laerm;68737;53.946;27.634;2023-07-24T10:28:18;54.480904;46.299034;64.769653;;
79288;Laerm;68737;53.946;27.634;2023-07-24T10:30:54;53.791855;45.066551;60.127846;;
79288;Laerm;68737;53.946;27.634;2023-07-24T10:33:18;52.963142;44.278595;67.137238;;
79288;Laerm;68737;53.946;27.634;2023-07-24T10:35:49;53.976913;43.175484;68.626480;;
79288;Laerm;68737;53.946;27.634;2023-07-24T10:38:18;51.889282;43.681274;61.356541;;
79288;Laerm;68737;53.946;27.634;2023-07-24T10:40:48;54.459465;45.946907;62.947922;;
79288;Laerm;68737;53.946;27.634;2023-07-24T10:43:18;55.884018;48.473160;64.347282;;
79288;Laerm;68737;53.946;27.634;2023-07-24T10:45:52;55.634010;46.308533;64.592667;;
79288;Laerm;68737;53.946;27.634;2023-07-24T10:48:18;53.868813;44.748375;64.155670;;
79288;Laerm;68737;53.946;27.634;2023-07-24T10:50:48;53.457649;45.336067;66.651077;;
79288;Laerm;68737;53.946;27.634;2023-07-24T10:53:18;54.036644;44.079872;61.995182;;
79288;Laerm;68737;53.946;27.634;2023-07-24T10:55:48;52.362404;43.579445;60.139904;;
79288;Laerm;68737;53.946;27.634;2023-07-24T10:58:18;52.918602;42.703087;60.745804;;
79288;Laerm;68737;53.946;27.634;2023-07-24T11:00:48;53.705772;42.632736;67.885437;;
79288;Laerm;68737;53.946;27.634;2023-07-24T11:03:18;52.847229;44.004929;60.939777;;
79288;Laerm;68737;53.946;27.634;2023-07-24T11:05:48;52.804947;42.788727;66.974915;;
79288;Laerm;68737;53.946;27.634;2023-07-24T11:08:18;54.831314;43.724976;66.468155;;
79288;Laerm;68737;53.946;27.634;2023-07-24T11:10:48;54.261200;45.431206;61.587486;;
79288;Laerm;68737;53.946;27.634;2023-07-24T11:13:23;55.317856;44.977547;64.583344;;
79288;Laerm;68737;53.946;27.634;2023-07-24T11:15:48;53.680504;44.968842;62.171844;;
79288;Laerm;68737;53.946;27.634;2023-07-24T11:18:18;52.454628;42.562729;63.895416;;
79288;Laerm;68737;53.946;27.634;2023-07-24T11:20:52;52.927132;45.376015;59.001320;;
79288;Laerm;68737;53.946;27.634;2023-07-24T11:23:17;53.944489;44.335701;61.028091;;
79288;Laerm;68737;53.946;27.634;2023-07-24T11:25:52;54.580231;45.934715;74.201111;;
79288;Laerm;68737;53.946;27.634;2023-07-24T11:28:17;51.602158;43.412781;67.951645;;
79288;Laerm;68737;53.946;27.634;2023-07-24T11:30:48;53.465767;42.885643;64.640099;;
79288;Laerm;68737;53.946;27.634;2023-07-24T11:33:17;56.925323;47.205048;68.467407;;
79288;Laerm;68737;53.946;27.634;2023-07-24T11:35:47;54.442307;44.382790;75.838799;;
79288;Laerm;68737;53.946;27.634;2023-07-24T11:38:17;55.596992;45.302017;68.101341;;
79288;Laerm;68737;53.946;27.634;2023-07-24T11:40:47;54.273552;46.248650;59.990387;;
79288;Laerm;68737;53.946;27.634;2023-07-24T11:43:18;53.603386;44.750183;62.538044;;
79288;Laerm;68737;53.946;27.634;2023-07-24T11:45:48;54.634827;43.909538;63.906364;;
79288;Laerm;68737;53.946;27.634;2023-07-24T11:48:18;53.835403;43.583443;62.510620;;
79288;Laerm;68737;53.946;27.634;2023-07-24T11:50:48;53.705803;43.385513;61.701752;;
79288;Laerm;68737;53.946;27.634;2023-07-24T11:53:22;55.451553;47.899170;63.392994;;
79288;Laerm;68737;53.946;27.634;2023-07-24T11:55:48;53.394371;45.055847;61.031075;;
79288;Laerm;68737;53.946;27.634;2023-07-24T11:58:18;53.546341;44.428322;60.277534;;
79288;Laerm;68737;53.946;27.634;2023-07-24T12:00:48;51.193001;42.734024;62.203842;;
79288;Laerm;68737;53.946;27.634;2023-07-24T12:05:48;53.571426;45.911705;66.094589;;
79288;Laerm;68737;53.946;27.634;2023-07-24T12:08:29;55.716919;47.186836;65.858498;;
79288;Laerm;68737;53.946;27.634;2023-07-24T12:10:47;53.298340;42.682549;63.811222;;
79288;Laerm;68737;53.946;27.634;2023-07-24T12:13:17;52.681824;43.294159;61.064892;;
79288;Laerm;68737;53.946;27.634;2023-07-24T12:15:48;53.003181;45.267067;59.908371;;
79288;Laerm;68737;53.946;27.634;2023-07-24T12:18:17;55.914482;48.191078;68.024330;;
79288;Laerm;68737;53.946;27.634;2023-07-24T12:20:47;53.820503;46.764709;61.931999;;
79288;Laerm;68737;53.946;27.634;2023-07-24T12:23:17;53.244194;45.372749;60.334679;;
79288;Laerm;68737;53.946;27.634;2023-07-24T12:25:47;52.529343;45.164963;60.124172;;
79288;Laerm;68737;53.946;27.634;2023-07-24T12:28:17;54.540459;45.185699;64.997513;;
79288;Laerm;68737;53.946;27.634;2023-07-24T12:30:47;53.724510;45.102913;63.320496;;